sensor_id;sensor_type;location;lat;lon;timestamp;temperature;humidity
68912;SHT31;55953;51.650;-0.522;2023-10-19T00:02:07;14.71;89.16
68912;SHT31;55953;51.650;-0.522;2023-10-19T00:04:35;14.70;89.11
68912;SHT31;55953;51.650;-0.522;2023-10-19T00:07:03;14.69;89.13
68912;SHT31;55953;51.650;-0.522;2023-10-19T00:09:34;14.69;89.14
68912;SHT31;55953;51.650;-0.522;2023-10-19T00:12:05;14.70;89.18
68912;SHT31;55953;51.650;-0.522;2023-10-19T00:14:35;14.70;89.13
68912;SHT31;55953;51.650;-0.522;2023-10-19T00:17:03;14.68;89.16
68912;SHT31;55953;51.650;-0.522;2023-10-19T00:19:33;14.64;89.07
68912;SHT31;55953;51.650;-0.522;2023-10-19T00:22:07;14.60;89.06
68912;SHT31;55953;51.650;-0.522;2023-10-19T00:24:36;14.55;88.98
68912;SHT31;55953;51.650;-0.522;2023-10-19T00:27:04;14.51;88.91
68912;SHT31;55953;51.650;-0.522;2023-10-19T00:29:43;14.46;88.92
68912;SHT31;55953;51.650;-0.522;2023-10-19T00:32:17;14.43;88.84
68912;SHT31;55953;51.650;-0.522;2023-10-19T00:34:47;14.37;88.76
68912;SHT31;55953;51.650;-0.522;2023-10-19T00:37:19;14.30;88.70
68912;SHT31;55953;51.650;-0.522;2023-10-19T00:39:54;14.21;88.29
68912;SHT31;55953;51.650;-0.522;2023-10-19T00:42:23;14.14;88.19
68912;SHT31;55953;51.650;-0.522;2023-10-19T00:44:58;14.04;87.86
68912;SHT31;55953;51.650;-0.522;2023-10-19T00:47:32;13.92;87.38
68912;SHT31;55953;51.650;-0.522;2023-10-19T00:50:08;13.77;87.23
68912;SHT31;55953;51.650;-0.522;2023-10-19T00:52:45;13.63;87.25
68912;SHT31;55953;51.650;-0.522;2023-10-19T00:55:19;13.51;87.34
68912;SHT31;55953;51.650;-0.522;2023-10-19T00:57:48;13.42;87.38
68912;SHT31;55953;51.650;-0.522;2023-10-19T01:00:17;13.38;87.61
68912;SHT31;55953;51.650;-0.522;2023-10-19T01:03:02;13.35;87.78
68912;SHT31;55953;51.650;-0.522;2023-10-19T01:05:33;13.37;87.90
68912;SHT31;55953;51.650;-0.522;2023-10-19T01:08:05;13.39;87.91
68912;SHT31;55953;51.650;-0.522;2023-10-19T01:10:51;13.41;87.95
68912;SHT31;55953;51.650;-0.522;2023-10-19T01:13:21;13.44;88.00
68912;SHT31;55953;51.650;-0.522;2023-10-19T01:15:54;13.47;88.13
68912;SHT31;55953;51.650;-0.522;2023-10-19T01:18:23;13.49;88.14
68912;SHT31;55953;51.650;-0.522;2023-10-19T01:20:57;13.53;88.14
68912;SHT31;55953;51.650;-0.522;2023-10-19T01:23:25;13.56;88.13
68912;SHT31;55953;51.650;-0.522;2023-10-19T01:25:54;13.59;88.24
68912;SHT31;55953;51.650;-0.522;2023-10-19T01:28:25;13.61;88.27
68912;SHT31;55953;51.650;-0.522;2023-10-19T01:31:10;13.64;88.36
68912;SHT31;55953;51.650;-0.522;2023-10-19T01:33:57;13.68;88.41
68912;SHT31;55953;51.650;-0.522;2023-10-19T01:36:29;13.72;88.43
68912;SHT31;55953;51.650;-0.522;2023-10-19T01:39:00;13.73;88.41
68912;SHT31;55953;51.650;-0.522;2023-10-19T01:41:29;13.75;88.42
68912;SHT31;55953;51.650;-0.522;2023-10-19T01:43:59;13.77;88.48
68912;SHT31;55953;51.650;-0.522;2023-10-19T01:46:33;13.78;88.52
68912;SHT31;55953;51.650;-0.522;2023-10-19T01:49:04;13.82;88.60
68912;SHT31;55953;51.650;-0.522;2023-10-19T01:51:33;13.85;88.64
68912;SHT31;55953;51.650;-0.522;2023-10-19T01:54:08;13.87;88.66
68912;SHT31;55953;51.650;-0.522;2023-10-19T01:56:37;13.89;88.71
68912;SHT31;55953;51.650;-0.522;2023-10-19T01:59:06;13.92;88.78
68912;SHT31;55953;51.650;-0.522;2023-10-19T02:01:36;13.94;88.78
68912;SHT31;55953;51.650;-0.522;2023-10-19T02:04:05;13.98;88.86
68912;SHT31;55953;51.650;-0.522;2023-10-19T02:06:36;14.02;88.98
68912;SHT31;55953;51.650;-0.522;2023-10-19T02:09:09;14.04;88.92
68912;SHT31;55953;51.650;-0.522;2023-10-19T02:11:55;14.07;88.98
68912;SHT31;55953;51.650;-0.522;2023-10-19T02:14:25;14.10;89.01
68912;SHT31;55953;51.650;-0.522;2023-10-19T02:16:59;14.13;88.98
68912;SHT31;55953;51.650;-0.522;2023-10-19T02:19:31;14.15;89.03
68912;SHT31;55953;51.650;-0.522;2023-10-19T02:22:00;14.18;89.01
68912;SHT31;55953;51.650;-0.522;2023-10-19T02:24:40;14.22;89.04
68912;SHT31;55953;51.650;-0.522;2023-10-19T02:27:08;14.23;89.02
68912;SHT31;55953;51.650;-0.522;2023-10-19T02:29:46;14.27;89.09
68912;SHT31;55953;51.650;-0.522;2023-10-19T02:32:14;14.29;89.06
68912;SHT31;55953;51.650;-0.522;2023-10-19T02:34:45;14.32;89.09
68912;SHT31;55953;51.650;-0.522;2023-10-19T02:37:13;14.34;89.01
68912;SHT31;55953;51.650;-0.522;2023-10-19T02:39:41;14.35;89.08
68912;SHT31;55953;51.650;-0.522;2023-10-19T02:42:11;14.36;89.02
68912;SHT31;55953;51.650;-0.522;2023-10-19T02:44:39;14.42;89.14
68912;SHT31;55953;51.650;-0.522;2023-10-19T02:47:06;14.46;89.10
68912;SHT31;55953;51.650;-0.522;2023-10-19T02:49:37;14.50;89.08
68912;SHT31;55953;51.650;-0.522;2023-10-19T02:52:06;14.54;89.07
68912;SHT31;55953;51.650;-0.522;2023-10-19T02:54:34;14.57;89.04
68912;SHT31;55953;51.650;-0.522;2023-10-19T02:57:03;14.62;89.07
68912;SHT31;55953;51.650;-0.522;2023-10-19T02:59:35;14.65;88.98
68912;SHT31;55953;51.650;-0.522;2023-10-19T03:02:03;14.68;88.93
68912;SHT31;55953;51.650;-0.522;2023-10-19T03:04:41;14.72;88.95
68912;SHT31;55953;51.650;-0.522;2023-10-19T03:07:10;14.73;88.84
68912;SHT31;55953;51.650;-0.522;2023-10-19T03:09:40;14.73;88.89
68912;SHT31;55953;51.650;-0.522;2023-10-19T03:12:16;14.74;88.86
68912;SHT31;55953;51.650;-0.522;2023-10-19T03:14:45;14.74;88.74
68912;SHT31;55953;51.650;-0.522;2023-10-19T03:17:15;14.69;88.60
68912;SHT31;55953;51.650;-0.522;2023-10-19T03:19:44;14.68;88.69
68912;SHT31;55953;51.650;-0.522;2023-10-19T03:22:13;14.69;88.82
68912;SHT31;55953;51.650;-0.522;2023-10-19T03:24:42;14.71;88.85
68912;SHT31;55953;51.650;-0.522;2023-10-19T03:27:14;14.74;88.88
68912;SHT31;55953;51.650;-0.522;2023-10-19T03:29:49;14.73;88.85
68912;SHT31;55953;51.650;-0.522;2023-10-19T03:32:23;14.76;88.96
68912;SHT31;55953;51.650;-0.522;2023-10-19T03:35:00;14.80;89.00
68912;SHT31;55953;51.650;-0.522;2023-10-19T03:37:30;14.84;89.09
68912;SHT31;55953;51.650;-0.522;2023-10-19T03:39:58;14.90;89.13
68912;SHT31;55953;51.650;-0.522;2023-10-19T03:42:26;14.94;89.04
68912;SHT31;55953;51.650;-0.522;2023-10-19T03:44:59;14.95;88.93
68912;SHT31;55953;51.650;-0.522;2023-10-19T03:47:30;14.95;88.89
68912;SHT31;55953;51.650;-0.522;2023-10-19T03:50:06;14.95;88.87
68912;SHT31;55953;51.650;-0.522;2023-10-19T03:52:35;14.96;88.91
68912;SHT31;55953;51.650;-0.522;2023-10-19T03:55:06;14.95;88.83
68912;SHT31;55953;51.650;-0.522;2023-10-19T03:57:47;14.93;88.86
68912;SHT31;55953;51.650;-0.522;2023-10-19T04:00:19;14.96;89.03
68912;SHT31;55953;51.650;-0.522;2023-10-19T04:02:52;14.98;89.03
68912;SHT31;55953;51.650;-0.522;2023-10-19T04:05:26;14.98;88.95
68912;SHT31;55953;51.650;-0.522;2023-10-19T04:07:55;15.02;89.09
68912;SHT31;55953;51.650;-0.522;2023-10-19T04:10:25;15.01;88.99
68912;SHT31;55953;51.650;-0.522;2023-10-19T04:13:19;15.00;89.02
68912;SHT31;55953;51.650;-0.522;2023-10-19T04:15:47;15.02;89.07
68912;SHT31;55953;51.650;-0.522;2023-10-19T04:18:17;15.03;89.17
68912;SHT31;55953;51.650;-0.522;2023-10-19T04:20:45;15.08;89.25
68912;SHT31;55953;51.650;-0.522;2023-10-19T04:23:16;15.11;89.28
68912;SHT31;55953;51.650;-0.522;2023-10-19T04:25:44;15.14;89.34
68912;SHT31;55953;51.650;-0.522;2023-10-19T04:28:15;15.17;89.36
68912;SHT31;55953;51.650;-0.522;2023-10-19T04:30:43;15.18;89.29
68912;SHT31;55953;51.650;-0.522;2023-10-19T04:33:11;15.23;89.44
68912;SHT31;55953;51.650;-0.522;2023-10-19T04:35:39;15.26;89.39
68912;SHT31;55953;51.650;-0.522;2023-10-19T04:38:09;15.28;89.32
68912;SHT31;55953;51.650;-0.522;2023-10-19T04:40:36;15.30;89.36
68912;SHT31;55953;51.650;-0.522;2023-10-19T04:43:04;15.32;89.37
68912;SHT31;55953;51.650;-0.522;2023-10-19T04:45:39;15.34;89.28
68912;SHT31;55953;51.650;-0.522;2023-10-19T04:48:07;15.35;89.33
68912;SHT31;55953;51.650;-0.522;2023-10-19T04:50:35;15.36;89.31
68912;SHT31;55953;51.650;-0.522;2023-10-19T04:53:03;15.36;89.30
68912;SHT31;55953;51.650;-0.522;2023-10-19T04:55:31;15.38;89.32
68912;SHT31;55953;51.650;-0.522;2023-10-19T04:57:58;15.41;89.34
68912;SHT31;55953;51.650;-0.522;2023-10-19T05:00:26;15.42;89.33
68912;SHT31;55953;51.650;-0.522;2023-10-19T05:02:55;15.43;89.28
68912;SHT31;55953;51.650;-0.522;2023-10-19T05:05:23;15.46;89.38
68912;SHT31;55953;51.650;-0.522;2023-10-19T05:07:51;15.48;89.40
68912;SHT31;55953;51.650;-0.522;2023-10-19T05:10:19;15.49;89.30
68912;SHT31;55953;51.650;-0.522;2023-10-19T05:12:47;15.49;89.30
68912;SHT31;55953;51.650;-0.522;2023-10-19T05:15:15;15.50;89.28
68912;SHT31;55953;51.650;-0.522;2023-10-19T05:17:43;15.52;89.40
68912;SHT31;55953;51.650;-0.522;2023-10-19T05:20:11;15.55;89.36
68912;SHT31;55953;51.650;-0.522;2023-10-19T05:22:39;15.54;89.37
68912;SHT31;55953;51.650;-0.522;2023-10-19T05:25:07;15.54;89.41
68912;SHT31;55953;51.650;-0.522;2023-10-19T05:27:35;15.53;89.44
68912;SHT31;55953;51.650;-0.522;2023-10-19T05:30:05;15.55;89.45
68912;SHT31;55953;51.650;-0.522;2023-10-19T05:32:37;15.52;89.37
68912;SHT31;55953;51.650;-0.522;2023-10-19T05:35:06;15.51;89.47
68912;SHT31;55953;51.650;-0.522;2023-10-19T05:37:34;15.55;89.57
68912;SHT31;55953;51.650;-0.522;2023-10-19T05:40:02;15.55;89.51
68912;SHT31;55953;51.650;-0.522;2023-10-19T05:42:32;15.57;89.60
68912;SHT31;55953;51.650;-0.522;2023-10-19T05:45:02;15.55;89.55
68912;SHT31;55953;51.650;-0.522;2023-10-19T05:47:30;15.56;89.53
68912;SHT31;55953;51.650;-0.522;2023-10-19T05:49:58;15.55;89.52
68912;SHT31;55953;51.650;-0.522;2023-10-19T05:52:26;15.57;89.60
68912;SHT31;55953;51.650;-0.522;2023-10-19T05:54:54;15.57;89.59
68912;SHT31;55953;51.650;-0.522;2023-10-19T05:57:22;15.56;89.59
68912;SHT31;55953;51.650;-0.522;2023-10-19T05:59:50;15.57;89.71
68912;SHT31;55953;51.650;-0.522;2023-10-19T06:02:17;15.57;89.66
68912;SHT31;55953;51.650;-0.522;2023-10-19T06:04:59;15.58;89.68
68912;SHT31;55953;51.650;-0.522;2023-10-19T06:07:27;15.59;89.71
68912;SHT31;55953;51.650;-0.522;2023-10-19T06:09:55;15.57;89.66
68912;SHT31;55953;51.650;-0.522;2023-10-19T06:12:23;15.57;89.73
68912;SHT31;55953;51.650;-0.522;2023-10-19T06:14:51;15.60;89.79
68912;SHT31;55953;51.650;-0.522;2023-10-19T06:17:18;15.61;89.74
68912;SHT31;55953;51.650;-0.522;2023-10-19T06:19:47;15.62;89.72
68912;SHT31;55953;51.650;-0.522;2023-10-19T06:22:15;15.62;89.65
68912;SHT31;55953;51.650;-0.522;2023-10-19T06:24:45;15.61;89.59
68912;SHT31;55953;51.650;-0.522;2023-10-19T06:27:13;15.62;89.67
68912;SHT31;55953;51.650;-0.522;2023-10-19T06:29:41;15.64;89.67
68912;SHT31;55953;51.650;-0.522;2023-10-19T06:32:08;15.63;89.54
68912;SHT31;55953;51.650;-0.522;2023-10-19T06:34:37;15.63;89.54
68912;SHT31;55953;51.650;-0.522;2023-10-19T06:37:04;15.60;89.50
68912;SHT31;55953;51.650;-0.522;2023-10-19T06:39:34;15.60;89.57
68912;SHT31;55953;51.650;-0.522;2023-10-19T06:42:08;15.59;89.48
68912;SHT31;55953;51.650;-0.522;2023-10-19T06:44:41;15.57;89.53
68912;SHT31;55953;51.650;-0.522;2023-10-19T06:47:11;15.53;89.46
68912;SHT31;55953;51.650;-0.522;2023-10-19T06:49:41;15.55;89.53
68912;SHT31;55953;51.650;-0.522;2023-10-19T06:52:09;15.52;89.53
68912;SHT31;55953;51.650;-0.522;2023-10-19T06:54:38;15.52;89.56
68912;SHT31;55953;51.650;-0.522;2023-10-19T06:57:06;15.54;89.63
68912;SHT31;55953;51.650;-0.522;2023-10-19T06:59:35;15.56;89.60
68912;SHT31;55953;51.650;-0.522;2023-10-19T07:02:04;15.57;89.58
68912;SHT31;55953;51.650;-0.522;2023-10-19T07:04:34;15.57;89.54
68912;SHT31;55953;51.650;-0.522;2023-10-19T07:07:02;15.57;89.48
68912;SHT31;55953;51.650;-0.522;2023-10-19T07:09:29;15.53;89.41
68912;SHT31;55953;51.650;-0.522;2023-10-19T07:11:57;15.52;89.38
68912;SHT31;55953;51.650;-0.522;2023-10-19T07:14:25;15.53;89.47
68912;SHT31;55953;51.650;-0.522;2023-10-19T07:16:54;15.53;89.43
68912;SHT31;55953;51.650;-0.522;2023-10-19T07:19:22;15.52;89.43
68912;SHT31;55953;51.650;-0.522;2023-10-19T07:21:50;15.51;89.48
68912;SHT31;55953;51.650;-0.522;2023-10-19T07:24:25;15.55;89.60
68912;SHT31;55953;51.650;-0.522;2023-10-19T07:26:53;15.58;89.52
68912;SHT31;55953;51.650;-0.522;2023-10-19T07:29:21;15.58;89.50
68912;SHT31;55953;51.650;-0.522;2023-10-19T07:31:48;15.61;89.48
68912;SHT31;55953;51.650;-0.522;2023-10-19T07:34:19;15.62;89.49
68912;SHT31;55953;51.650;-0.522;2023-10-19T07:36:52;15.65;89.49
68912;SHT31;55953;51.650;-0.522;2023-10-19T07:39:21;15.70;89.52
68912;SHT31;55953;51.650;-0.522;2023-10-19T07:41:50;15.72;89.47
68912;SHT31;55953;51.650;-0.522;2023-10-19T07:44:18;15.76;89.42
68912;SHT31;55953;51.650;-0.522;2023-10-19T07:46:46;15.79;89.38
68912;SHT31;55953;51.650;-0.522;2023-10-19T07:49:14;15.81;89.34
68912;SHT31;55953;51.650;-0.522;2023-10-19T07:51:46;15.84;89.37
68912;SHT31;55953;51.650;-0.522;2023-10-19T07:54:15;15.89;89.40
68912;SHT31;55953;51.650;-0.522;2023-10-19T07:56:43;15.93;89.29
68912;SHT31;55953;51.650;-0.522;2023-10-19T07:59:11;15.94;89.21
68912;SHT31;55953;51.650;-0.522;2023-10-19T08:01:39;15.99;89.26
68912;SHT31;55953;51.650;-0.522;2023-10-19T08:04:08;16.02;89.10
68912;SHT31;55953;51.650;-0.522;2023-10-19T08:06:36;16.06;89.19
68912;SHT31;55953;51.650;-0.522;2023-10-19T08:09:04;16.11;89.14
68912;SHT31;55953;51.650;-0.522;2023-10-19T08:11:32;16.14;89.02
68912;SHT31;55953;51.650;-0.522;2023-10-19T08:14:01;16.16;89.01
68912;SHT31;55953;51.650;-0.522;2023-10-19T08:16:29;16.18;88.94
68912;SHT31;55953;51.650;-0.522;2023-10-19T08:18:57;16.22;89.05
68912;SHT31;55953;51.650;-0.522;2023-10-19T08:21:25;16.22;88.89
68912;SHT31;55953;51.650;-0.522;2023-10-19T08:23:56;16.22;88.83
68912;SHT31;55953;51.650;-0.522;2023-10-19T08:26:23;16.24;88.86
68912;SHT31;55953;51.650;-0.522;2023-10-19T08:28:52;16.25;88.81
68912;SHT31;55953;51.650;-0.522;2023-10-19T08:31:20;16.28;88.83
68912;SHT31;55953;51.650;-0.522;2023-10-19T08:33:48;16.35;88.89
68912;SHT31;55953;51.650;-0.522;2023-10-19T08:36:19;16.40;88.79
68912;SHT31;55953;51.650;-0.522;2023-10-19T08:38:47;16.45;88.75
68912;SHT31;55953;51.650;-0.522;2023-10-19T08:41:15;16.52;88.72
68912;SHT31;55953;51.650;-0.522;2023-10-19T08:43:43;16.56;88.56
68912;SHT31;55953;51.650;-0.522;2023-10-19T08:46:11;16.61;88.62
68912;SHT31;55953;51.650;-0.522;2023-10-19T08:48:40;16.65;88.55
68912;SHT31;55953;51.650;-0.522;2023-10-19T08:51:09;16.65;88.40
68912;SHT31;55953;51.650;-0.522;2023-10-19T08:53:38;16.70;88.43
68912;SHT31;55953;51.650;-0.522;2023-10-19T08:56:09;16.76;88.31
68912;SHT31;55953;51.650;-0.522;2023-10-19T08:58:39;16.80;88.15
68912;SHT31;55953;51.650;-0.522;2023-10-19T09:01:08;16.86;88.23
68912;SHT31;55953;51.650;-0.522;2023-10-19T09:03:37;16.90;88.00
68912;SHT31;55953;51.650;-0.522;2023-10-19T09:06:06;16.88;87.76
68912;SHT31;55953;51.650;-0.522;2023-10-19T09:08:34;16.92;87.84
68912;SHT31;55953;51.650;-0.522;2023-10-19T09:11:10;16.97;87.81
68912;SHT31;55953;51.650;-0.522;2023-10-19T09:13:44;17.00;87.79
68912;SHT31;55953;51.650;-0.522;2023-10-19T09:16:20;17.09;87.84
68912;SHT31;55953;51.650;-0.522;2023-10-19T09:18:50;17.20;87.79
68912;SHT31;55953;51.650;-0.522;2023-10-19T09:21:19;17.31;87.73
68912;SHT31;55953;51.650;-0.522;2023-10-19T09:23:54;17.42;87.57
68912;SHT31;55953;51.650;-0.522;2023-10-19T09:26:24;17.49;87.45
68912;SHT31;55953;51.650;-0.522;2023-10-19T09:28:52;17.52;87.12
68912;SHT31;55953;51.650;-0.522;2023-10-19T09:31:21;17.56;87.08
68912;SHT31;55953;51.650;-0.522;2023-10-19T09:33:52;17.64;87.02
68912;SHT31;55953;51.650;-0.522;2023-10-19T09:36:24;17.70;86.79
68912;SHT31;55953;51.650;-0.522;2023-10-19T09:38:57;17.71;86.72
68912;SHT31;55953;51.650;-0.522;2023-10-19T09:41:25;17.72;86.86
68912;SHT31;55953;51.650;-0.522;2023-10-19T09:43:58;17.74;86.84
68912;SHT31;55953;51.650;-0.522;2023-10-19T09:46:34;17.75;86.51
68912;SHT31;55953;51.650;-0.522;2023-10-19T09:49:07;17.79;86.30
68912;SHT31;55953;51.650;-0.522;2023-10-19T09:51:39;17.73;86.29
68912;SHT31;55953;51.650;-0.522;2023-10-19T09:54:30;17.67;86.36
68912;SHT31;55953;51.650;-0.522;2023-10-19T09:57:10;17.65;86.29
68912;SHT31;55953;51.650;-0.522;2023-10-19T09:59:51;17.62;86.17
68912;SHT31;55953;51.650;-0.522;2023-10-19T10:02:38;17.64;86.25
68912;SHT31;55953;51.650;-0.522;2023-10-19T10:10:55;17.77;85.75
68912;SHT31;55953;51.650;-0.522;2023-10-19T10:16:03;17.66;85.80
68912;SHT31;55953;51.650;-0.522;2023-10-19T10:18:32;17.69;85.96
68912;SHT31;55953;51.650;-0.522;2023-10-19T10:21:11;17.75;86.02
68912;SHT31;55953;51.650;-0.522;2023-10-19T10:23:44;17.82;85.88
68912;SHT31;55953;51.650;-0.522;2023-10-19T10:26:17;17.89;85.81
68912;SHT31;55953;51.650;-0.522;2023-10-19T10:28:46;17.95;85.80
68912;SHT31;55953;51.650;-0.522;2023-10-19T10:31:20;17.97;85.60
68912;SHT31;55953;51.650;-0.522;2023-10-19T10:33:50;18.02;85.50
68912;SHT31;55953;51.650;-0.522;2023-10-19T10:36:22;18.05;85.42
68912;SHT31;55953;51.650;-0.522;2023-10-19T10:38:50;18.08;85.23
68912;SHT31;55953;51.650;-0.522;2023-10-19T10:41:19;18.11;85.27
68912;SHT31;55953;51.650;-0.522;2023-10-19T10:43:59;18.14;85.31
68912;SHT31;55953;51.650;-0.522;2023-10-19T10:46:27;18.23;85.43
68912;SHT31;55953;51.650;-0.522;2023-10-19T10:48:59;18.33;85.22
68912;SHT31;55953;51.650;-0.522;2023-10-19T10:51:29;18.35;85.20
68912;SHT31;55953;51.650;-0.522;2023-10-19T10:53:57;18.36;84.98
68912;SHT31;55953;51.650;-0.522;2023-10-19T10:56:25;18.38;84.79
68912;SHT31;55953;51.650;-0.522;2023-10-19T10:58:54;18.43;84.58
68912;SHT31;55953;51.650;-0.522;2023-10-19T11:01:31;18.42;84.61
68912;SHT31;55953;51.650;-0.522;2023-10-19T11:04:10;18.43;84.42
68912;SHT31;55953;51.650;-0.522;2023-10-19T11:06:46;18.57;84.33
68912;SHT31;55953;51.650;-0.522;2023-10-19T11:09:16;18.66;83.73
68912;SHT31;55953;51.650;-0.522;2023-10-19T11:11:49;18.67;83.45
68912;SHT31;55953;51.650;-0.522;2023-10-19T11:14:17;18.62;83.35
68912;SHT31;55953;51.650;-0.522;2023-10-19T11:16:45;18.55;83.26
68912;SHT31;55953;51.650;-0.522;2023-10-19T11:19:13;18.45;82.69
68912;SHT31;55953;51.650;-0.522;2023-10-19T11:21:51;18.40;83.30
68912;SHT31;55953;51.650;-0.522;2023-10-19T11:24:26;18.38;83.80
68912;SHT31;55953;51.650;-0.522;2023-10-19T11:26:57;18.39;83.90
68912;SHT31;55953;51.650;-0.522;2023-10-19T11:29:25;18.32;83.78
68912;SHT31;55953;51.650;-0.522;2023-10-19T11:31:56;18.20;83.93
68912;SHT31;55953;51.650;-0.522;2023-10-19T11:34:28;18.07;83.97
68912;SHT31;55953;51.650;-0.522;2023-10-19T11:36:58;18.02;84.34
68912;SHT31;55953;51.650;-0.522;2023-10-19T11:39:30;17.97;84.47
68912;SHT31;55953;51.650;-0.522;2023-10-19T11:41:58;17.98;84.65
68912;SHT31;55953;51.650;-0.522;2023-10-19T11:44:27;18.02;84.76
68912;SHT31;55953;51.650;-0.522;2023-10-19T11:46:55;18.12;84.79
68912;SHT31;55953;51.650;-0.522;2023-10-19T11:49:22;18.32;84.94
68912;SHT31;55953;51.650;-0.522;2023-10-19T11:51:53;18.43;84.65
68912;SHT31;55953;51.650;-0.522;2023-10-19T11:54:21;18.38;84.74
68912;SHT31;55953;51.650;-0.522;2023-10-19T11:56:49;18.29;84.73
68912;SHT31;55953;51.650;-0.522;2023-10-19T11:59:17;18.23;84.87
68912;SHT31;55953;51.650;-0.522;2023-10-19T12:01:44;18.22;84.74
68912;SHT31;55953;51.650;-0.522;2023-10-19T12:04:13;18.30;84.82
68912;SHT31;55953;51.650;-0.522;2023-10-19T12:06:41;18.31;84.96
68912;SHT31;55953;51.650;-0.522;2023-10-19T12:09:09;18.31;84.69
68912;SHT31;55953;51.650;-0.522;2023-10-19T12:11:43;18.25;84.63
68912;SHT31;55953;51.650;-0.522;2023-10-19T12:14:15;18.16;84.76
68912;SHT31;55953;51.650;-0.522;2023-10-19T12:16:43;18.06;84.77
68912;SHT31;55953;51.650;-0.522;2023-10-19T12:19:13;17.94;85.07
68912;SHT31;55953;51.650;-0.522;2023-10-19T12:21:42;17.92;85.18
68912;SHT31;55953;51.650;-0.522;2023-10-19T12:24:09;17.97;85.20
68912;SHT31;55953;51.650;-0.522;2023-10-19T12:26:37;18.01;85.13
68912;SHT31;55953;51.650;-0.522;2023-10-19T12:29:06;17.99;85.09
68912;SHT31;55953;51.650;-0.522;2023-10-19T12:31:37;17.94;85.20
68912;SHT31;55953;51.650;-0.522;2023-10-19T12:34:07;17.88;85.22
68912;SHT31;55953;51.650;-0.522;2023-10-19T12:36:35;17.83;85.40
68912;SHT31;55953;51.650;-0.522;2023-10-19T12:39:03;17.76;85.51
68912;SHT31;55953;51.650;-0.522;2023-10-19T12:41:34;17.68;85.62
68912;SHT31;55953;51.650;-0.522;2023-10-19T12:44:02;17.67;85.81
68912;SHT31;55953;51.650;-0.522;2023-10-19T12:46:39;17.75;85.86
68912;SHT31;55953;51.650;-0.522;2023-10-19T12:49:08;17.88;85.88
68912;SHT31;55953;51.650;-0.522;2023-10-19T12:51:41;18.01;85.92
68912;SHT31;55953;51.650;-0.522;2023-10-19T12:54:13;18.09;85.62
68912;SHT31;55953;51.650;-0.522;2023-10-19T12:56:41;18.17;85.52
68912;SHT31;55953;51.650;-0.522;2023-10-19T12:59:09;18.27;85.41
68912;SHT31;55953;51.650;-0.522;2023-10-19T13:01:37;18.43;85.37
68912;SHT31;55953;51.650;-0.522;2023-10-19T13:04:05;18.56;85.38
68912;SHT31;55953;51.650;-0.522;2023-10-19T13:06:45;18.61;85.02
68912;SHT31;55953;51.650;-0.522;2023-10-19T13:09:15;18.66;84.81
68912;SHT31;55953;51.650;-0.522;2023-10-19T13:11:49;18.67;84.74
68912;SHT31;55953;51.650;-0.522;2023-10-19T13:14:20;18.64;84.60
68912;SHT31;55953;51.650;-0.522;2023-10-19T13:16:48;18.57;84.60
68912;SHT31;55953;51.650;-0.522;2023-10-19T13:19:18;18.54;84.66
68912;SHT31;55953;51.650;-0.522;2023-10-19T13:21:53;18.53;84.80
68912;SHT31;55953;51.650;-0.522;2023-10-19T13:24:21;18.55;84.84
68912;SHT31;55953;51.650;-0.522;2023-10-19T13:26:49;18.57;84.80
68912;SHT31;55953;51.650;-0.522;2023-10-19T13:29:18;18.60;84.59
68912;SHT31;55953;51.650;-0.522;2023-10-19T13:31:47;18.51;84.54
68912;SHT31;55953;51.650;-0.522;2023-10-19T13:34:19;18.43;84.45
68912;SHT31;55953;51.650;-0.522;2023-10-19T13:36:48;18.38;84.06
68912;SHT31;55953;51.650;-0.522;2023-10-19T13:39:18;18.32;84.27
68912;SHT31;55953;51.650;-0.522;2023-10-19T13:41:46;18.25;84.14
68912;SHT31;55953;51.650;-0.522;2023-10-19T13:44:14;18.23;84.16
68912;SHT31;55953;51.650;-0.522;2023-10-19T13:46:42;18.17;84.19
68912;SHT31;55953;51.650;-0.522;2023-10-19T13:49:10;18.10;84.30
68912;SHT31;55953;51.650;-0.522;2023-10-19T13:51:38;18.04;84.15
68912;SHT31;55953;51.650;-0.522;2023-10-19T13:54:06;17.97;84.14
68912;SHT31;55953;51.650;-0.522;2023-10-19T13:56:34;17.92;84.23
68912;SHT31;55953;51.650;-0.522;2023-10-19T13:59:03;17.93;84.28
68912;SHT31;55953;51.650;-0.522;2023-10-19T14:01:33;17.98;84.34
68912;SHT31;55953;51.650;-0.522;2023-10-19T14:04:01;18.03;84.11
68912;SHT31;55953;51.650;-0.522;2023-10-19T14:06:29;18.03;83.99
68912;SHT31;55953;51.650;-0.522;2023-10-19T14:08:57;17.96;84.00
68912;SHT31;55953;51.650;-0.522;2023-10-19T14:11:25;17.90;84.20
68912;SHT31;55953;51.650;-0.522;2023-10-19T14:13:53;17.89;84.14
68912;SHT31;55953;51.650;-0.522;2023-10-19T14:16:21;17.91;84.31
68912;SHT31;55953;51.650;-0.522;2023-10-19T14:18:53;17.91;84.18
68912;SHT31;55953;51.650;-0.522;2023-10-19T14:21:21;17.91;84.29
68912;SHT31;55953;51.650;-0.522;2023-10-19T14:23:50;17.92;84.33
68912;SHT31;55953;51.650;-0.522;2023-10-19T14:26:18;17.89;84.10
68912;SHT31;55953;51.650;-0.522;2023-10-19T14:28:46;17.82;84.17
68912;SHT31;55953;51.650;-0.522;2023-10-19T14:31:15;17.76;84.32
68912;SHT31;55953;51.650;-0.522;2023-10-19T14:33:44;17.69;84.46
68912;SHT31;55953;51.650;-0.522;2023-10-19T14:36:12;17.65;84.55
68912;SHT31;55953;51.650;-0.522;2023-10-19T14:38:39;17.69;84.57
68912;SHT31;55953;51.650;-0.522;2023-10-19T14:41:07;17.72;84.54
68912;SHT31;55953;51.650;-0.522;2023-10-19T14:43:37;17.80;84.84
68912;SHT31;55953;51.650;-0.522;2023-10-19T14:46:05;17.85;84.63
68912;SHT31;55953;51.650;-0.522;2023-10-19T14:48:34;17.83;84.50
68912;SHT31;55953;51.650;-0.522;2023-10-19T14:51:02;17.78;84.32
68912;SHT31;55953;51.650;-0.522;2023-10-19T14:53:33;17.73;84.48
68912;SHT31;55953;51.650;-0.522;2023-10-19T14:56:01;17.75;84.50
68912;SHT31;55953;51.650;-0.522;2023-10-19T14:58:29;17.77;84.56
68912;SHT31;55953;51.650;-0.522;2023-10-19T15:00:59;17.74;84.60
68912;SHT31;55953;51.650;-0.522;2023-10-19T15:03:27;17.70;84.55
68912;SHT31;55953;51.650;-0.522;2023-10-19T15:05:56;17.69;84.90
68912;SHT31;55953;51.650;-0.522;2023-10-19T15:08:27;17.69;84.74
68912;SHT31;55953;51.650;-0.522;2023-10-19T15:10:58;17.64;84.60
68912;SHT31;55953;51.650;-0.522;2023-10-19T15:13:26;17.63;84.83
68912;SHT31;55953;51.650;-0.522;2023-10-19T15:15:54;17.57;84.65
68912;SHT31;55953;51.650;-0.522;2023-10-19T15:18:24;17.52;84.80
68912;SHT31;55953;51.650;-0.522;2023-10-19T15:20:52;17.48;84.84
68912;SHT31;55953;51.650;-0.522;2023-10-19T15:23:20;17.46;84.98
68912;SHT31;55953;51.650;-0.522;2023-10-19T15:25:48;17.42;84.90
68912;SHT31;55953;51.650;-0.522;2023-10-19T15:28:16;17.41;84.97
68912;SHT31;55953;51.650;-0.522;2023-10-19T15:30:44;17.40;84.96
68912;SHT31;55953;51.650;-0.522;2023-10-19T15:33:11;17.36;84.99
68912;SHT31;55953;51.650;-0.522;2023-10-19T15:35:40;17.35;85.03
68912;SHT31;55953;51.650;-0.522;2023-10-19T15:38:08;17.32;85.00
68912;SHT31;55953;51.650;-0.522;2023-10-19T15:40:36;17.32;85.15
68912;SHT31;55953;51.650;-0.522;2023-10-19T15:43:07;17.30;85.12